Tropical Cyclones
[Index]
Main Index Home Page Stock Weather Photos Extreme Storms Discussion Storm News and Storm Chasing Reports Tropical Cyclones / Hurricanes / Typhoons Weather Data and Links Wild Fires / Bushfires Weather Observation Techniques Weather Picture Catalogue Tornado Pictures and Reports Stock Video Footage and DVDs for sale
Season 2000-2001 Tropical Cyclone WALTER Track Map
Season 2000-2001 Summaries: [BoM-AU] [JTWC-AU] [JTWC-SIO] [JTWC-SPAC] [JTWC-SH]
<<- Previous TC | JTWC 2000-2001 Season | Next TC ->>

click for intensity scale information  Lat/long Grid: Show Hide

 Date Labels: Show Hide

Joint Typhoon Warning Centre Cyclone Data

Name: WALTER

02 Apr 2001 06:00 UTC to 07 Apr 2001 18:00 UTC

    date/time    lat    long     hPa   cat  kts
2001-04-02 06    9.8   107.7                  25          
2001-04-02 12   10.0   106.6                  25          
2001-04-02 18   10.0   105.3                  30          
2001-04-03 00   10.0   104.0            1     40          
2001-04-03 06   10.0   103.2            1     45          
2001-04-03 12   10.0   102.4            2     55          
2001-04-03 18   10.1   101.6            2     60          
2001-04-04 00   10.1   100.6            2     65          
2001-04-04 06   10.3    99.6            2     70          
2001-04-04 12   10.5    98.7            3     75          
2001-04-04 18   10.7    97.8            3     80          
2001-04-05 00   11.2    97.1            3     85          
2001-04-05 06   11.7    96.6            3     90          
2001-04-05 12   12.1    96.1            3     85          
2001-04-05 18   12.4    95.7            3     85          
2001-04-06 00   12.7    95.3            3     80          
2001-04-06 06   13.1    94.8            3     80          
2001-04-06 12   13.5    94.6            3     75          
2001-04-06 18   14.0    94.6            3     75          
2001-04-07 00   15.1    95.0            2     70          
2001-04-07 06   16.3    95.2            2     65          
2001-04-07 12   17.9    95.3            2     60          
2001-04-07 18   19.6    95.6            1     50          
Winds are 1-min average.

Tropical cyclone tracks developed by Michael Bath using data from the Joint Typhoon Warning Centre Best Tracks and Google Maps.


[Australian Severe Weather index] [Copyright Notice] [Email Contacts] [Search This Site] [Privacy Policy]
Document: tropical_cyclone_walter.htm Updated: 28 June 2017